createdAt,value
2022-09-09T00:00:19.738Z,43.61
2022-09-09T00:03:14.483Z,43.99
2022-09-09T00:06:09.230Z,44.08
2022-09-09T00:09:05.210Z,43.79
2022-09-09T00:11:57.321Z,43.89
2022-09-09T00:14:50.884Z,43.46
2022-09-09T00:17:41.919Z,43.58
2022-09-09T00:20:32.935Z,43.45
2022-09-09T00:23:26.957Z,43.42
2022-09-09T00:26:21.852Z,43.45
2022-09-09T00:29:18.347Z,43.62
2022-09-09T00:32:15.058Z,43.42
2022-09-09T00:35:07.371Z,43.60
2022-09-09T00:37:58.544Z,43.33
2022-09-09T00:40:53.322Z,43.88
2022-09-09T00:43:43.848Z,43.38
2022-09-09T00:47:13.533Z,43.51
2022-09-09T00:50:03.464Z,43.23
2022-09-09T00:52:57.243Z,43.48
2022-09-09T00:55:51.279Z,43.33
2022-09-09T00:58:39.828Z,43.32
2022-09-09T01:01:29.698Z,43.24
2022-09-09T01:04:23.610Z,43.24
2022-09-09T01:07:18.671Z,43.22
2022-09-09T01:10:13.126Z,43.27
2022-09-09T01:13:03.984Z,43.29
2022-09-09T01:15:57.237Z,43.18
2022-09-09T01:18:52.202Z,42.92
2022-09-09T01:21:45.626Z,42.65
2022-09-09T01:24:41.472Z,42.72
2022-09-09T01:27:31.305Z,42.47
2022-09-09T01:30:20.951Z,42.38
2022-09-09T01:33:12.905Z,42.67
2022-09-09T01:36:02.528Z,42.40
2022-09-09T01:38:51.028Z,42.45
2022-09-09T01:41:39.950Z,42.90
2022-09-09T01:44:30.149Z,42.71
2022-09-09T01:47:18.977Z,42.54
2022-09-09T01:50:08.867Z,42.62
2022-09-09T01:53:00.792Z,42.59
2022-09-09T01:55:57.788Z,42.87
2022-09-09T01:58:54.772Z,42.73
2022-09-09T02:01:55.798Z,42.65
2022-09-09T02:04:47.638Z,42.64
2022-09-09T02:07:41.093Z,42.75
2022-09-09T02:10:33.770Z,42.82
2022-09-09T02:13:24.604Z,42.53
2022-09-09T02:16:16.224Z,42.56
2022-09-09T02:19:10.469Z,42.58
2022-09-09T02:22:00.989Z,42.30
2022-09-09T02:24:51.151Z,42.48
2022-09-09T02:27:40.127Z,42.63
2022-09-09T02:30:30.393Z,42.20
2022-09-09T02:33:18.961Z,42.29
2022-09-09T02:36:10.390Z,42.22
2022-09-09T02:38:58.930Z,42.45
2022-09-09T02:41:48.325Z,42.40
2022-09-09T02:44:38.082Z,42.39
2022-09-09T02:47:32.982Z,42.44
2022-09-09T02:50:25.846Z,42.42
2022-09-09T02:53:22.136Z,42.61
2022-09-09T02:56:12.773Z,42.58
2022-09-09T02:59:01.240Z,42.43
2022-09-09T03:01:49.883Z,42.49
2022-09-09T03:04:38.334Z,42.71
2022-09-09T03:07:28.419Z,42.59
2022-09-09T03:10:18.379Z,42.43
2022-09-09T03:13:07.300Z,42.27
2022-09-09T03:15:55.729Z,42.48
2022-09-09T03:18:46.627Z,42.58
2022-09-09T03:21:35.103Z,42.12
2022-09-09T03:24:23.714Z,42.13
2022-09-09T03:27:15.149Z,42.39
2022-09-09T03:30:04.725Z,42.41
2022-09-09T03:32:53.276Z,42.33
2022-09-09T03:35:42.300Z,42.02
2022-09-09T03:38:36.061Z,42.26
2022-09-09T03:41:25.019Z,42.67
2022-09-09T03:44:14.773Z,42.32
2022-09-09T03:47:03.250Z,42.14
2022-09-09T03:49:51.963Z,42.01
2022-09-09T03:52:41.736Z,41.83
2022-09-09T03:55:30.198Z,41.83
2022-09-09T03:58:22.350Z,41.87
2022-09-09T04:01:15.048Z,42.34
2022-09-09T04:04:05.195Z,42.23
2022-09-09T04:06:53.736Z,42.11
2022-09-09T04:09:42.319Z,42.09
2022-09-09T04:12:31.788Z,42.04
2022-09-09T04:15:20.243Z,41.74
2022-09-09T04:18:10.106Z,41.78
2022-09-09T04:20:59.129Z,41.79
2022-09-09T04:23:50.097Z,41.61
2022-09-09T04:26:39.109Z,41.79
2022-09-09T04:29:27.587Z,41.70
2022-09-09T04:32:16.091Z,41.65
2022-09-09T04:35:06.564Z,41.75
2022-09-09T04:37:55.040Z,41.95
2022-09-09T04:40:44.874Z,42.02
2022-09-09T04:43:33.348Z,41.89
2022-09-09T04:46:25.258Z,41.91
2022-09-09T04:49:15.353Z,41.86
2022-09-09T04:52:05.503Z,42.24
2022-09-09T04:54:55.683Z,42.03
2022-09-09T04:57:44.173Z,41.77
2022-09-09T05:00:32.631Z,41.91
2022-09-09T05:03:21.607Z,41.89
2022-09-09T05:06:11.825Z,41.78
2022-09-09T05:09:01.745Z,41.91
2022-09-09T05:11:50.196Z,42.25
2022-09-09T05:14:38.726Z,42.19
2022-09-09T05:17:27.197Z,42.35
2022-09-09T05:20:17.535Z,42.35
2022-09-09T05:23:06.471Z,42.50
2022-09-09T05:26:00.360Z,42.66
2022-09-09T05:28:49.231Z,42.38
2022-09-09T05:31:37.889Z,42.65
2022-09-09T05:34:26.326Z,42.52
2022-09-09T05:37:14.767Z,42.43
2022-09-09T05:40:04.100Z,42.29
2022-09-09T05:42:54.513Z,42.27
2022-09-09T05:45:43.492Z,42.21
2022-09-09T05:48:33.022Z,42.50
2022-09-09T05:51:23.368Z,42.38
2022-09-09T05:54:11.857Z,42.37
2022-09-09T05:57:00.276Z,42.33
2022-09-09T05:59:50.724Z,42.16
2022-09-09T06:02:40.050Z,42.12
2022-09-09T06:05:30.587Z,42.16
2022-09-09T06:08:19.140Z,42.28
2022-09-09T06:11:09.038Z,42.25
2022-09-09T06:13:57.484Z,42.22
2022-09-09T06:16:47.537Z,42.58
2022-09-09T06:19:36.006Z,42.64
2022-09-09T06:22:24.563Z,42.70
2022-09-09T06:25:13.476Z,42.72
2022-09-09T06:28:03.302Z,42.70
2022-09-09T06:31:00.585Z,42.73
2022-09-09T06:33:51.800Z,42.69
2022-09-09T06:36:41.186Z,42.40
2022-09-09T06:39:29.877Z,42.45
2022-09-09T06:42:18.774Z,42.65
2022-09-09T06:45:08.161Z,42.51
2022-09-09T06:47:58.566Z,42.60
2022-09-09T06:50:50.727Z,42.48
2022-09-09T06:53:40.243Z,42.47
2022-09-09T06:56:30.383Z,42.37
2022-09-09T06:59:18.794Z,42.29
2022-09-09T07:02:07.293Z,42.38
2022-09-09T07:04:55.799Z,42.71
2022-09-09T07:07:45.920Z,42.62
2022-09-09T07:10:35.252Z,42.65
2022-09-09T07:13:26.928Z,42.70
2022-09-09T07:16:17.275Z,42.75
2022-09-09T07:19:06.275Z,42.69
2022-09-09T07:21:54.757Z,42.59
2022-09-09T07:24:46.045Z,42.65
2022-09-09T07:27:34.520Z,42.71
2022-09-09T07:30:27.561Z,42.57
2022-09-09T07:33:16.464Z,42.64
2022-09-09T07:36:08.056Z,42.63
2022-09-09T07:38:58.674Z,42.65
2022-09-09T07:41:50.273Z,42.83
2022-09-09T07:44:40.531Z,42.85
2022-09-09T07:47:29.011Z,42.90
2022-09-09T07:50:17.425Z,42.88
2022-09-09T07:53:07.413Z,42.55
2022-09-09T07:55:56.812Z,43.13
2022-09-09T07:58:48.907Z,42.80
2022-09-09T08:01:41.181Z,43.30
2022-09-09T08:04:30.418Z,42.73
2022-09-09T08:07:18.836Z,42.87
2022-09-09T08:10:08.275Z,42.92
2022-09-09T08:13:16.685Z,42.98
2022-09-09T08:16:12.494Z,43.10
2022-09-09T08:19:01.226Z,43.02
2022-09-09T08:21:49.976Z,43.11
2022-09-09T08:24:38.534Z,43.18
2022-09-09T08:27:27.425Z,43.32
2022-09-09T08:30:16.049Z,43.35
2022-09-09T08:33:06.342Z,43.39
2022-09-09T08:35:54.793Z,43.40
2022-09-09T08:38:43.481Z,43.39
2022-09-09T08:41:44.293Z,43.44
2022-09-09T08:44:45.589Z,43.53
2022-09-09T08:47:42.384Z,43.74
2022-09-09T08:50:34.871Z,43.76
2022-09-09T08:53:26.750Z,43.92
2022-09-09T08:56:17.110Z,43.59
2022-09-09T08:59:06.131Z,43.78
2022-09-09T09:02:03.762Z,43.79
2022-09-09T09:05:03.412Z,43.62
2022-09-09T09:08:02.041Z,43.69
2022-09-09T09:10:51.997Z,43.91
2022-09-09T09:13:44.151Z,43.97
2022-09-09T09:16:37.496Z,43.81
2022-09-09T09:19:27.265Z,43.67
2022-09-09T09:22:21.043Z,43.97
2022-09-09T09:25:18.035Z,43.75
2022-09-09T09:28:13.474Z,43.69
2022-09-09T09:31:06.820Z,43.55
2022-09-09T09:33:56.610Z,43.65
2022-09-09T09:36:47.354Z,43.59
2022-09-09T09:42:54.402Z,43.19
2022-09-09T09:45:55.189Z,42.98
2022-09-09T09:48:59.250Z,42.56
2022-09-09T09:51:48.033Z,42.50
2022-09-09T09:54:40.155Z,42.78
2022-09-09T09:57:30.170Z,42.88
2022-09-09T10:00:21.961Z,42.70
2022-09-09T10:03:22.964Z,42.90
2022-09-09T10:06:11.507Z,42.99
2022-09-09T10:09:08.696Z,43.13
2022-09-09T10:12:04.762Z,42.97
2022-09-09T10:15:01.483Z,43.23
2022-09-09T10:17:57.545Z,43.03
2022-09-09T10:20:55.237Z,43.43
2022-09-09T10:24:00.518Z,43.55
2022-09-09T10:26:54.888Z,43.26
2022-09-09T10:29:53.862Z,43.48
2022-09-09T10:32:45.262Z,43.79
2022-09-09T10:35:37.818Z,43.40
2022-09-09T10:38:31.774Z,43.19
2022-09-09T10:41:22.453Z,43.33
2022-09-09T10:44:21.693Z,43.28
2022-09-09T10:47:28.329Z,43.32
2022-09-09T10:50:59.906Z,43.16
2022-09-09T10:53:51.699Z,42.96
2022-09-09T10:56:40.837Z,42.73
2022-09-09T10:59:31.963Z,42.39
2022-09-09T11:02:24.876Z,42.44
2022-09-09T11:05:17.856Z,42.55
2022-09-09T11:08:09.646Z,42.69
2022-09-09T11:11:04.849Z,42.10
2022-09-09T11:13:58.085Z,42.70
2022-09-09T11:16:51.283Z,42.41
2022-09-09T11:19:42.044Z,42.36
2022-09-09T11:22:34.740Z,42.60
2022-09-09T11:25:27.444Z,42.80
2022-09-09T11:28:32.193Z,42.50
2022-09-09T11:31:34.005Z,42.54
2022-09-09T11:34:34.436Z,42.92
2022-09-09T11:37:48.071Z,43.43
2022-09-09T11:40:36.543Z,43.50
2022-09-09T11:43:30.518Z,43.56
2022-09-09T11:46:20.716Z,44.23
2022-09-09T11:49:24.252Z,44.27
2022-09-09T11:52:23.721Z,44.24
2022-09-09T11:55:13.851Z,44.27
2022-09-09T11:58:02.997Z,44.53
2022-09-09T12:00:53.303Z,44.41
2022-09-09T12:03:44.670Z,44.15
2022-09-09T12:06:34.392Z,44.04
2022-09-09T12:09:28.190Z,43.58
2022-09-09T12:12:28.730Z,43.43
2022-09-09T12:15:28.982Z,43.76
2022-09-09T12:18:24.641Z,43.51
2022-09-09T12:21:20.032Z,43.70
2022-09-09T12:24:11.521Z,43.39
2022-09-09T12:27:08.709Z,43.50
2022-09-09T12:30:01.729Z,42.88
2022-09-09T12:32:50.570Z,43.11
2022-09-09T12:35:40.558Z,42.88
2022-09-09T12:38:35.013Z,43.14
2022-09-09T12:41:24.835Z,42.96
2022-09-09T12:44:13.242Z,43.21
2022-09-09T12:47:03.889Z,42.91
2022-09-09T12:49:52.900Z,43.00
2022-09-09T12:52:42.674Z,42.98
2022-09-09T12:55:34.591Z,42.88
2022-09-09T12:58:23.357Z,43.12
2022-09-09T13:01:23.796Z,43.31
2022-09-09T13:04:23.036Z,43.42
2022-09-09T13:07:12.595Z,43.17
2022-09-09T13:10:02.357Z,43.24
2022-09-09T13:12:51.031Z,43.28
2022-09-09T13:15:39.507Z,43.83
2022-09-09T13:18:30.175Z,43.20
2022-09-09T13:21:18.808Z,43.03
2022-09-09T13:24:08.587Z,43.10
2022-09-09T13:26:59.519Z,42.84
2022-09-09T13:29:55.927Z,43.02
2022-09-09T13:32:50.290Z,43.14
2022-09-09T13:35:48.556Z,42.37
2022-09-09T13:38:39.156Z,42.99
2022-09-09T13:41:33.638Z,42.99
2022-09-09T13:44:25.807Z,42.93
2022-09-09T13:47:21.462Z,43.26
2022-09-09T13:50:21.875Z,43.05
2022-09-09T13:53:10.310Z,42.50
2022-09-09T13:55:59.059Z,42.73
2022-09-09T13:58:47.443Z,42.73
2022-09-09T14:01:39.681Z,42.32
2022-09-09T14:04:28.105Z,42.25
2022-09-09T14:07:18.217Z,42.32
2022-09-09T14:10:07.453Z,42.52
2022-09-09T14:12:55.842Z,42.94
2022-09-09T14:15:44.463Z,42.72
2022-09-09T14:18:35.331Z,42.87
2022-09-09T14:21:23.874Z,43.08
2022-09-09T14:24:13.333Z,43.07
2022-09-09T14:27:01.774Z,42.86
2022-09-09T14:29:57.421Z,42.61
2022-09-09T14:32:46.009Z,42.74
2022-09-09T14:35:36.341Z,42.43
2022-09-09T14:38:27.917Z,42.88
2022-09-09T14:41:18.701Z,42.48
2022-09-09T14:44:07.115Z,42.75
2022-09-09T14:46:55.553Z,43.13
2022-09-09T14:49:46.572Z,42.71
2022-09-09T14:52:37.795Z,42.64
2022-09-09T14:55:26.260Z,42.58
2022-09-09T14:58:15.471Z,42.30
2022-09-09T15:01:07.789Z,42.24
2022-09-09T15:03:58.888Z,42.62
2022-09-09T15:06:49.180Z,42.41
2022-09-09T15:09:39.153Z,42.20
2022-09-09T15:12:29.308Z,41.88
2022-09-09T15:15:19.021Z,41.87
2022-09-09T15:18:07.466Z,41.81
2022-09-09T15:20:55.899Z,41.73
2022-09-09T15:23:45.184Z,41.59
2022-09-09T15:26:34.902Z,41.96
2022-09-09T15:29:23.346Z,41.73
2022-09-09T15:32:12.825Z,41.97
2022-09-09T15:35:02.455Z,41.93
2022-09-09T15:37:50.852Z,41.89
2022-09-09T15:40:39.303Z,42.08
2022-09-09T15:43:29.050Z,42.21
2022-09-09T15:46:33.190Z,42.49
2022-09-09T15:49:23.682Z,41.91
2022-09-09T15:52:13.354Z,41.71
2022-09-09T15:55:01.947Z,41.56
2022-09-09T15:57:50.399Z,41.46
2022-09-09T16:00:40.441Z,42.14
2022-09-09T16:03:28.887Z,42.55
2022-09-09T16:06:17.597Z,43.15
2022-09-09T16:09:08.013Z,42.97
2022-09-09T16:11:59.931Z,43.21
2022-09-09T16:14:48.542Z,42.99
2022-09-09T16:17:39.146Z,43.59
2022-09-09T16:20:27.577Z,43.19
2022-09-09T16:23:16.061Z,43.04
2022-09-09T16:26:05.912Z,43.28
2022-09-09T16:28:55.123Z,42.80
2022-09-09T16:31:44.069Z,43.07
2022-09-09T16:34:34.658Z,43.18
2022-09-09T16:37:23.210Z,43.12
2022-09-09T16:40:11.870Z,42.96
2022-09-09T16:43:00.352Z,42.92
2022-09-09T16:45:49.073Z,42.95
2022-09-09T16:48:37.824Z,42.81
2022-09-09T16:51:31.694Z,43.32
2022-09-09T16:54:20.816Z,43.14
2022-09-09T16:57:09.466Z,42.83
2022-09-09T17:00:00.287Z,42.70
2022-09-09T17:02:48.792Z,42.52
2022-09-09T17:05:42.284Z,43.01
2022-09-09T17:08:34.370Z,42.91
2022-09-09T17:11:24.272Z,42.96
2022-09-09T17:14:15.999Z,43.03
2022-09-09T17:17:19.317Z,43.12
2022-09-09T17:20:15.709Z,42.96
2022-09-09T17:23:04.161Z,43.02
2022-09-09T17:26:00.945Z,42.91
2022-09-09T17:28:49.512Z,43.29
2022-09-09T17:31:37.938Z,43.45
2022-09-09T17:34:26.481Z,43.40
2022-09-09T17:37:14.877Z,43.36
2022-09-09T17:40:03.891Z,43.57
2022-09-09T17:42:53.712Z,43.44
2022-09-09T17:45:42.119Z,43.27
2022-09-09T17:48:32.628Z,43.15
2022-09-09T17:51:25.297Z,43.08
2022-09-09T17:54:15.593Z,43.45
2022-09-09T17:57:04.119Z,43.36
2022-09-09T17:59:53.970Z,43.51
2022-09-09T18:02:44.894Z,43.35
2022-09-09T18:05:33.317Z,43.50
2022-09-09T18:08:24.137Z,43.18
2022-09-09T18:11:12.497Z,43.22
2022-09-09T18:14:04.281Z,43.40
2022-09-09T18:16:54.759Z,43.62
2022-09-09T18:19:43.214Z,43.53
2022-09-09T18:22:31.776Z,43.61
2022-09-09T18:25:20.193Z,43.28
2022-09-09T18:28:09.045Z,43.54
2022-09-09T18:30:57.724Z,43.16
2022-09-09T18:33:49.076Z,43.21
2022-09-09T18:36:39.430Z,43.63
2022-09-09T18:39:29.895Z,43.32
2022-09-09T18:42:18.398Z,42.96
2022-09-09T18:45:07.715Z,43.33
2022-09-09T18:47:56.769Z,43.02
2022-09-09T18:50:46.567Z,43.38
2022-09-09T18:53:35.696Z,43.59
2022-09-09T18:56:24.688Z,43.08
2022-09-09T18:59:14.314Z,43.21
2022-09-09T19:02:02.698Z,43.44
2022-09-09T19:04:51.208Z,43.43
2022-09-09T19:07:41.331Z,43.68
2022-09-09T19:10:31.472Z,43.73
2022-09-09T19:13:20.076Z,43.10
2022-09-09T19:16:10.227Z,43.51
2022-09-09T19:19:01.098Z,43.58
2022-09-09T19:21:50.017Z,43.77
2022-09-09T19:24:40.628Z,43.42
2022-09-09T19:27:29.086Z,43.63
2022-09-09T19:30:17.691Z,43.67
2022-09-09T19:33:06.730Z,43.13
2022-09-09T19:36:02.018Z,43.51
2022-09-09T19:38:50.552Z,43.38
2022-09-09T19:41:40.323Z,43.64
2022-09-09T19:44:28.864Z,43.60
2022-09-09T19:47:17.826Z,43.69
2022-09-09T19:50:08.759Z,43.35
2022-09-09T19:52:57.977Z,43.61
2022-09-09T19:55:50.795Z,43.52
2022-09-09T19:58:41.493Z,43.43
2022-09-09T20:01:37.972Z,43.46
2022-09-09T20:04:30.733Z,43.56
2022-09-09T20:07:19.783Z,43.80
2022-09-09T20:10:09.918Z,43.54
2022-09-09T20:13:00.386Z,43.50
2022-09-09T20:15:58.117Z,43.63
2022-09-09T20:18:48.615Z,43.75
2022-09-09T20:21:38.306Z,43.65
2022-09-09T20:24:26.795Z,43.38
2022-09-09T20:27:15.228Z,43.75
2022-09-09T20:30:03.689Z,43.82
2022-09-09T20:32:53.516Z,43.77
2022-09-09T20:35:42.058Z,43.65
2022-09-09T20:38:30.518Z,43.52
2022-09-09T20:41:21.647Z,43.53
2022-09-09T20:44:14.156Z,43.61
2022-09-09T20:47:07.074Z,43.65
2022-09-09T20:49:56.908Z,43.67
2022-09-09T20:52:45.357Z,43.53
2022-09-09T20:55:34.282Z,43.51
2022-09-09T20:58:22.686Z,43.77
2022-09-09T21:01:17.306Z,43.58
2022-09-09T21:04:06.076Z,43.14
2022-09-09T21:06:55.799Z,43.66
2022-09-09T21:09:44.287Z,43.97
2022-09-09T21:12:32.703Z,43.60
2022-09-09T21:15:21.158Z,43.77
2022-09-09T21:18:09.640Z,43.40
2022-09-09T21:20:58.602Z,43.95
2022-09-09T21:23:48.854Z,43.38
2022-09-09T21:26:37.240Z,43.27
2022-09-09T21:29:25.639Z,43.33
2022-09-09T21:32:14.035Z,43.62
2022-09-09T21:35:02.424Z,44.02
2022-09-09T21:37:50.808Z,43.37
2022-09-09T21:40:42.085Z,43.91
2022-09-09T21:43:30.471Z,43.64
2022-09-09T21:46:19.156Z,43.82
2022-09-09T21:49:09.641Z,43.39
2022-09-09T21:51:58.688Z,43.75
2022-09-09T21:54:47.123Z,43.65
2022-09-09T21:57:37.607Z,43.93
2022-09-09T22:00:26.280Z,43.63
2022-09-09T22:03:15.998Z,43.30
2022-09-09T22:06:06.484Z,43.28
2022-09-09T22:09:00.174Z,43.77
2022-09-09T22:11:48.561Z,43.56
2022-09-09T22:14:38.643Z,43.44
2022-09-09T22:17:27.344Z,43.52
2022-09-09T22:20:16.026Z,43.67
2022-09-09T22:23:06.989Z,43.71
2022-09-09T22:25:56.980Z,43.71
2022-09-09T22:28:45.371Z,43.35
2022-09-09T22:31:36.709Z,43.51
2022-09-09T22:34:28.257Z,43.51
2022-09-09T22:37:16.621Z,43.68
2022-09-09T22:40:06.000Z,43.60
2022-09-09T22:42:54.503Z,43.61
2022-09-09T22:45:44.172Z,43.77
2022-09-09T22:48:37.890Z,43.93
2022-09-09T22:51:26.332Z,43.61
2022-09-09T22:54:15.332Z,43.43
2022-09-09T22:57:07.481Z,43.46
2022-09-09T22:59:56.136Z,43.61
2022-09-09T23:02:44.555Z,43.63
2022-09-09T23:05:35.339Z,43.83
2022-09-09T23:08:24.876Z,43.54
2022-09-09T23:11:13.691Z,43.70
2022-09-09T23:14:03.965Z,43.47
2022-09-09T23:16:52.579Z,43.83
2022-09-09T23:19:41.552Z,43.33
2022-09-09T23:22:34.235Z,43.75
2022-09-09T23:25:22.818Z,43.77
2022-09-09T23:28:11.341Z,43.40
2022-09-09T23:30:59.906Z,43.53
2022-09-09T23:33:49.498Z,43.80
2022-09-09T23:36:39.187Z,43.35
2022-09-09T23:39:29.184Z,43.66
2022-09-09T23:42:17.757Z,43.77
2022-09-09T23:45:07.638Z,43.84
2022-09-09T23:47:56.003Z,43.53
2022-09-09T23:50:44.442Z,43.62
2022-09-09T23:53:32.981Z,43.16
2022-09-09T23:56:26.224Z,43.51
2022-09-09T23:59:14.669Z,43.22
